createdAt,value
2023-10-21T00:00:56.351Z,18.02
2023-10-21T00:03:30.948Z,19.16
2023-10-21T00:06:06.908Z,20.23
2023-10-21T00:08:40.331Z,18.65
2023-10-21T00:11:13.738Z,17.13
2023-10-21T00:13:48.364Z,18.06
2023-10-21T00:16:21.683Z,17.25
2023-10-21T00:18:54.927Z,17.32
2023-10-21T00:21:28.189Z,17.92
2023-10-21T00:24:01.590Z,18.84
2023-10-21T00:26:46.131Z,17.47
2023-10-21T00:29:20.750Z,19.40
2023-10-21T00:31:54.025Z,18.33
2023-10-21T00:34:27.279Z,17.85
2023-10-21T00:37:00.492Z,22.31
2023-10-21T00:39:35.770Z,19.73
2023-10-21T00:42:09.191Z,20.77
2023-10-21T00:44:43.884Z,23.36
2023-10-21T00:47:19.535Z,20.82
2023-10-21T00:49:53.365Z,20.87
2023-10-21T00:52:27.775Z,19.15
2023-10-21T00:55:04.390Z,20.70
2023-10-21T00:57:38.678Z,18.77
2023-10-21T01:00:14.809Z,17.74
2023-10-21T01:02:49.282Z,16.77
2023-10-21T01:05:23.333Z,19.81
2023-10-21T01:08:00.736Z,20.12
2023-10-21T01:10:33.975Z,18.92
2023-10-21T01:13:07.214Z,20.37
2023-10-21T01:15:42.811Z,20.45
2023-10-21T01:18:16.088Z,18.48
2023-10-21T01:20:54.308Z,19.49
2023-10-21T01:23:29.456Z,19.60
2023-10-21T01:26:03.075Z,18.25
2023-10-21T01:28:36.627Z,18.12
2023-10-21T01:31:09.859Z,18.46
2023-10-21T01:33:43.197Z,19.45
2023-10-21T01:36:16.544Z,18.87
2023-10-21T01:38:51.282Z,20.57
2023-10-21T01:41:24.639Z,19.66
2023-10-21T01:43:57.791Z,18.75
2023-10-21T01:46:31.033Z,16.92
2023-10-21T01:49:06.563Z,16.27
2023-10-21T01:51:39.752Z,15.98
2023-10-21T01:54:14.594Z,14.90
2023-10-21T01:56:47.898Z,13.45
2023-10-21T01:59:21.584Z,14.01
2023-10-21T02:01:54.824Z,13.03
2023-10-21T02:04:28.213Z,12.29
2023-10-21T02:07:01.771Z,11.59
2023-10-21T02:09:36.473Z,11.09
2023-10-21T02:12:10.923Z,11.03
2023-10-21T02:14:44.143Z,10.44
2023-10-21T02:17:17.401Z,10.55
2023-10-21T02:19:57.542Z,10.18
2023-10-21T02:22:30.805Z,10.52
2023-10-21T02:25:13.439Z,12.91
2023-10-21T02:27:48.905Z,11.48
2023-10-21T02:30:22.175Z,10.53
2023-10-21T02:32:56.345Z,12.81
2023-10-21T02:35:29.697Z,10.88
2023-10-21T02:38:02.985Z,12.00
2023-10-21T02:40:43.100Z,11.77
2023-10-21T02:43:16.331Z,11.73
2023-10-21T02:45:50.780Z,11.83
2023-10-21T02:48:26.532Z,11.68
2023-10-21T02:51:01.493Z,10.92
2023-10-21T02:53:35.031Z,10.65
2023-10-21T02:56:14.212Z,14.67
2023-10-21T02:58:47.420Z,21.74
2023-10-21T03:01:22.457Z,19.50
2023-10-21T03:03:56.427Z,19.84
2023-10-21T03:06:31.945Z,17.57
2023-10-21T03:09:07.683Z,18.92
2023-10-21T03:11:43.386Z,20.77
2023-10-21T03:14:16.662Z,20.96
2023-10-21T03:16:50.777Z,21.96
2023-10-21T03:19:24.025Z,22.66
2023-10-21T03:21:58.176Z,52.42
2023-10-21T03:24:32.379Z,64.97
2023-10-21T03:27:07.527Z,60.52
2023-10-21T03:29:40.703Z,56.53
2023-10-21T03:32:14.586Z,60.67
2023-10-21T03:34:48.838Z,65.20
2023-10-21T03:37:22.040Z,69.21
2023-10-21T03:39:56.570Z,49.47
2023-10-21T03:42:31.417Z,52.88
2023-10-21T03:45:05.786Z,49.46
2023-10-21T03:47:39.697Z,31.26
2023-10-21T03:50:13.093Z,26.47
2023-10-21T03:52:46.293Z,26.68
2023-10-21T03:55:19.668Z,32.63
2023-10-21T03:57:54.267Z,67.91
2023-10-21T04:00:27.601Z,71.05
2023-10-21T04:03:00.864Z,55.94
2023-10-21T04:05:34.175Z,40.70
2023-10-21T04:08:07.976Z,34.01
2023-10-21T04:10:41.542Z,30.09
2023-10-21T04:13:16.250Z,28.33
2023-10-21T04:15:50.681Z,27.63
2023-10-21T04:18:24.083Z,26.69
2023-10-21T04:20:57.661Z,28.94
2023-10-21T04:23:33.116Z,31.21
2023-10-21T04:26:07.748Z,49.13
2023-10-21T04:28:42.378Z,42.86
2023-10-21T04:31:15.652Z,26.14
2023-10-21T04:33:48.970Z,19.15
2023-10-21T04:36:22.412Z,15.87
2023-10-21T04:38:55.616Z,15.89
2023-10-21T04:41:28.801Z,15.45
2023-10-21T04:44:03.826Z,15.49
2023-10-21T04:46:37.199Z,14.12
2023-10-21T04:49:10.386Z,14.89
2023-10-21T04:51:43.571Z,13.73
2023-10-21T04:54:18.051Z,13.37
2023-10-21T04:56:51.315Z,13.31
2023-10-21T04:59:25.846Z,12.61
2023-10-21T05:01:59.070Z,13.55
2023-10-21T05:04:32.455Z,12.07
2023-10-21T05:07:05.710Z,12.32
2023-10-21T05:09:38.882Z,13.97
2023-10-21T05:12:12.420Z,15.99
2023-10-21T05:14:47.125Z,14.83
2023-10-21T05:17:20.385Z,13.47
2023-10-21T05:19:53.673Z,13.45
2023-10-21T05:22:26.902Z,11.71
2023-10-21T05:25:00.125Z,12.10
2023-10-21T05:27:33.342Z,11.05
2023-10-21T05:30:09.462Z,12.20
2023-10-21T05:32:43.645Z,11.03
2023-10-21T05:35:17.139Z,10.42
2023-10-21T05:37:50.378Z,10.96
2023-10-21T05:40:23.581Z,11.84
2023-10-21T05:42:56.793Z,11.49
2023-10-21T05:45:31.432Z,10.95
2023-10-21T05:48:05.239Z,10.08
2023-10-21T05:50:38.656Z,10.15
2023-10-21T05:53:12.052Z,9.17
2023-10-21T05:55:45.716Z,8.71
2023-10-21T05:58:18.894Z,6.49
2023-10-21T06:00:53.598Z,7.87
2023-10-21T06:03:26.830Z,8.79
2023-10-21T06:06:00.131Z,7.14
2023-10-21T06:08:33.565Z,6.46
2023-10-21T06:11:06.826Z,5.80
2023-10-21T06:13:40.212Z,7.19
2023-10-21T06:16:15.266Z,5.45
2023-10-21T06:18:48.701Z,6.21
2023-10-21T06:21:21.979Z,5.26
2023-10-21T06:23:55.196Z,3.27
2023-10-21T06:26:28.428Z,3.58
2023-10-21T06:29:02.745Z,2.60
2023-10-21T06:31:37.342Z,3.77
2023-10-21T06:34:10.543Z,4.02
2023-10-21T06:36:44.200Z,3.89
2023-10-21T06:39:17.404Z,4.25
2023-10-21T06:41:50.726Z,2.93
2023-10-21T06:44:24.883Z,3.25
2023-10-21T06:46:59.438Z,4.44
2023-10-21T06:49:32.585Z,3.42
2023-10-21T06:52:06.636Z,4.04
2023-10-21T06:54:40.201Z,5.39
2023-10-21T06:57:21.147Z,4.50
2023-10-21T06:59:54.548Z,4.61
2023-10-21T07:02:29.719Z,4.71
2023-10-21T07:05:02.939Z,4.74
2023-10-21T07:07:41.503Z,5.21
2023-10-21T07:10:14.663Z,3.59
2023-10-21T07:12:47.798Z,4.79
2023-10-21T07:15:21.381Z,8.17
2023-10-21T07:17:56.070Z,5.58
2023-10-21T07:20:31.491Z,4.89
2023-10-21T07:23:04.973Z,6.47
2023-10-21T07:25:38.604Z,5.44
2023-10-21T07:28:12.309Z,4.75
2023-10-21T07:30:45.776Z,4.76
2023-10-21T07:33:23.161Z,6.18
2023-10-21T07:35:56.931Z,5.22
2023-10-21T07:38:30.077Z,4.79
2023-10-21T07:41:11.113Z,4.87
2023-10-21T07:43:44.286Z,5.87
2023-10-21T07:46:17.514Z,5.52
2023-10-21T07:48:52.899Z,5.00
2023-10-21T07:51:26.208Z,4.55
2023-10-21T07:53:59.564Z,4.16
2023-10-21T07:56:34.014Z,5.44
2023-10-21T07:59:07.317Z,6.40
2023-10-21T08:01:40.838Z,4.95
2023-10-21T08:04:15.532Z,5.95
2023-10-21T08:06:48.998Z,4.16
2023-10-21T08:09:24.347Z,4.36
2023-10-21T08:11:57.604Z,4.91
2023-10-21T08:14:31.988Z,5.88
2023-10-21T08:17:06.324Z,5.60
2023-10-21T08:19:40.953Z,5.31
2023-10-21T08:22:14.200Z,9.36
2023-10-21T08:24:48.339Z,5.65
2023-10-21T08:27:21.669Z,6.17
2023-10-21T08:29:57.951Z,5.16
2023-10-21T08:32:31.113Z,5.20
2023-10-21T08:35:06.072Z,5.23
2023-10-21T08:37:39.242Z,6.23
2023-10-21T08:40:13.230Z,6.08
2023-10-21T08:45:22.984Z,6.33
2023-10-21T08:47:59.768Z,4.99
2023-10-21T08:50:37.184Z,5.38
2023-10-21T08:53:13.520Z,5.94
2023-10-21T08:55:47.312Z,8.38
2023-10-21T08:58:29.339Z,6.05
2023-10-21T09:01:03.200Z,5.87
2023-10-21T09:03:36.952Z,6.00
2023-10-21T09:06:13.419Z,5.59
2023-10-21T09:08:48.646Z,7.29
2023-10-21T09:11:32.523Z,6.60
2023-10-21T09:14:07.284Z,7.70
2023-10-21T09:16:40.577Z,7.94
2023-10-21T09:19:13.867Z,9.43
2023-10-21T09:21:48.401Z,7.72
2023-10-21T09:24:24.322Z,8.17
2023-10-21T09:26:57.640Z,8.57
2023-10-21T09:29:30.877Z,7.85
2023-10-21T09:32:07.489Z,7.59
2023-10-21T09:34:41.619Z,8.65
2023-10-21T09:37:27.888Z,7.35
2023-10-21T09:40:01.081Z,6.30
2023-10-21T09:42:39.127Z,7.55
2023-10-21T09:45:14.224Z,5.76
2023-10-21T09:47:48.375Z,5.66
2023-10-21T09:50:22.091Z,5.69
2023-10-21T09:53:09.192Z,7.32
2023-10-21T09:55:43.380Z,6.18
2023-10-21T09:58:20.637Z,7.55
2023-10-21T10:00:55.341Z,6.47
2023-10-21T10:03:28.976Z,5.18
2023-10-21T10:06:04.272Z,5.71
2023-10-21T10:08:39.798Z,7.51
2023-10-21T10:11:17.812Z,6.27
2023-10-21T10:13:51.313Z,6.38
2023-10-21T10:16:26.398Z,8.60
2023-10-21T10:18:59.695Z,6.60
2023-10-21T10:21:36.036Z,6.64
2023-10-21T10:24:11.139Z,6.30
2023-10-21T10:26:47.380Z,6.17
2023-10-21T10:29:26.338Z,7.34
2023-10-21T10:32:18.090Z,5.66
2023-10-21T10:34:53.914Z,6.49
2023-10-21T10:37:32.876Z,6.67
2023-10-21T10:40:21.241Z,6.59
2023-10-21T10:42:54.538Z,7.91
2023-10-21T10:45:30.085Z,7.71
2023-10-21T10:48:05.105Z,6.86
2023-10-21T10:50:39.086Z,7.44
2023-10-21T10:53:16.654Z,10.03
2023-10-21T10:55:55.246Z,8.26
2023-10-21T10:58:28.752Z,9.61
2023-10-21T11:01:02.484Z,8.29
2023-10-21T11:03:37.786Z,8.35
2023-10-21T11:06:13.706Z,8.99
2023-10-21T11:08:48.032Z,8.25
2023-10-21T11:11:22.582Z,8.15
2023-10-21T11:13:56.706Z,8.40
2023-10-21T11:16:30.054Z,8.24
2023-10-21T11:19:03.368Z,9.21
2023-10-21T11:21:40.784Z,9.25
2023-10-21T11:24:15.644Z,9.30
2023-10-21T11:26:52.567Z,10.64
2023-10-21T11:29:26.816Z,10.23
2023-10-21T11:32:00.013Z,8.69
2023-10-21T11:34:33.912Z,9.65
2023-10-21T11:37:07.806Z,11.70
2023-10-21T11:39:42.188Z,11.46
2023-10-21T11:42:20.772Z,10.02
2023-10-21T11:44:58.880Z,10.78
2023-10-21T11:47:34.341Z,13.17
2023-10-21T11:50:11.454Z,10.96
2023-10-21T11:52:45.683Z,12.10
2023-10-21T11:55:38.400Z,12.77
2023-10-21T11:58:55.835Z,12.87
2023-10-21T12:02:07.306Z,12.65
2023-10-21T12:04:54.326Z,11.57
2023-10-21T12:07:44.795Z,12.50
2023-10-21T12:10:34.650Z,11.48
2023-10-21T12:13:36.815Z,14.14
2023-10-21T12:16:28.251Z,12.96
2023-10-21T12:19:15.287Z,10.54
2023-10-21T12:22:17.389Z,12.85
2023-10-21T12:25:07.759Z,12.20
2023-10-21T12:27:58.256Z,10.42
2023-10-21T12:30:54.413Z,12.02
2023-10-21T12:33:46.547Z,14.31
2023-10-21T12:36:34.489Z,13.23
2023-10-21T12:39:21.693Z,14.91
2023-10-21T12:41:55.050Z,13.84
2023-10-21T12:44:28.437Z,12.79
2023-10-21T12:47:07.117Z,10.41
2023-10-21T12:49:44.427Z,11.51
2023-10-21T12:52:17.705Z,10.51
2023-10-21T12:54:52.040Z,11.03
2023-10-21T12:57:25.388Z,11.77
2023-10-21T12:59:58.653Z,11.75
2023-10-21T13:02:37.092Z,10.84
2023-10-21T13:05:12.098Z,10.85
2023-10-21T13:07:45.508Z,13.29
2023-10-21T13:10:19.508Z,13.54
2023-10-21T13:12:52.687Z,12.52
2023-10-21T13:15:25.967Z,12.37
2023-10-21T13:17:59.634Z,10.96
2023-10-21T13:20:34.265Z,10.80
2023-10-21T13:23:07.447Z,10.80
2023-10-21T13:25:40.682Z,11.70
2023-10-21T13:28:13.914Z,10.62
2023-10-21T13:30:49.370Z,11.38
2023-10-21T13:33:22.616Z,10.40
2023-10-21T13:35:57.191Z,11.62
2023-10-21T13:38:30.371Z,11.01
2023-10-21T13:41:06.052Z,11.66
2023-10-21T13:43:40.179Z,11.38
2023-10-21T13:46:13.362Z,10.97
2023-10-21T13:48:46.613Z,12.35
2023-10-21T13:51:21.243Z,11.09
2023-10-21T13:53:56.799Z,10.51
2023-10-21T13:56:32.382Z,10.51
2023-10-21T13:59:07.323Z,10.15
2023-10-21T14:01:42.830Z,10.25
2023-10-21T14:04:16.373Z,9.38
2023-10-21T14:06:51.119Z,12.03
2023-10-21T14:09:25.170Z,11.44
2023-10-21T14:11:58.587Z,9.17
2023-10-21T14:14:31.759Z,11.75
2023-10-21T14:17:05.401Z,11.60
2023-10-21T14:19:38.605Z,10.82
2023-10-21T14:22:13.128Z,9.41
2023-10-21T14:24:46.322Z,11.54
2023-10-21T14:27:20.450Z,11.14
2023-10-21T14:30:04.000Z,10.79
2023-10-21T14:32:39.052Z,11.64
2023-10-21T14:35:12.237Z,11.11
2023-10-21T14:37:46.825Z,9.78
2023-10-21T14:40:20.180Z,9.45
2023-10-21T14:42:53.378Z,10.70
2023-10-21T14:45:26.632Z,9.93
2023-10-21T14:48:01.027Z,9.35
2023-10-21T14:50:34.248Z,16.18
2023-10-21T14:53:09.693Z,92.39
2023-10-21T14:55:52.290Z,16.85
2023-10-21T14:58:28.953Z,27.80
2023-10-21T15:01:03.967Z,15.74
2023-10-21T15:03:38.587Z,15.20
2023-10-21T15:06:11.938Z,17.46
2023-10-21T15:08:46.511Z,11.04
2023-10-21T15:11:19.734Z,13.19
2023-10-21T15:13:52.977Z,10.94
2023-10-21T15:16:26.181Z,11.96
2023-10-21T15:18:59.588Z,11.36
2023-10-21T15:21:33.053Z,11.88
2023-10-21T15:24:08.404Z,10.49
2023-10-21T15:26:41.513Z,10.81
2023-10-21T15:29:14.661Z,10.74
2023-10-21T15:31:48.743Z,10.87
2023-10-21T15:34:23.261Z,11.30
2023-10-21T15:36:56.384Z,11.54
2023-10-21T15:39:31.462Z,10.36
2023-10-21T15:42:05.052Z,11.55
2023-10-21T15:44:38.251Z,10.53
2023-10-21T15:47:13.983Z,10.16
2023-10-21T15:49:47.170Z,11.17
2023-10-21T15:52:20.381Z,11.22
2023-10-21T15:54:55.538Z,11.66
2023-10-21T15:57:29.398Z,11.64
2023-10-21T16:00:04.036Z,11.32
2023-10-21T16:02:41.968Z,10.62
2023-10-21T16:05:15.197Z,10.09
2023-10-21T16:10:25.968Z,10.71
2023-10-21T16:13:01.700Z,9.21
2023-10-21T16:15:37.262Z,10.23
2023-10-21T16:18:10.767Z,12.19
2023-10-21T16:20:44.022Z,12.20
2023-10-21T16:23:17.235Z,11.50
2023-10-21T16:25:51.779Z,11.35
2023-10-21T16:28:24.937Z,11.27
2023-10-21T16:31:00.467Z,11.10
2023-10-21T16:33:34.983Z,10.15
2023-10-21T16:36:08.973Z,12.09
2023-10-21T16:38:42.122Z,10.98
2023-10-21T16:41:16.680Z,10.58
2023-10-21T16:43:52.364Z,9.26
2023-10-21T16:46:26.851Z,10.18
2023-10-21T16:49:00.096Z,10.34
2023-10-21T16:51:33.297Z,10.83
2023-10-21T16:54:06.660Z,11.27
2023-10-21T16:56:41.669Z,10.35
2023-10-21T16:59:14.825Z,10.83
2023-10-21T17:01:48.068Z,9.84
2023-10-21T17:04:21.273Z,10.63
2023-10-21T17:06:57.282Z,11.19
2023-10-21T17:09:30.527Z,9.34
2023-10-21T17:12:05.744Z,10.22
2023-10-21T17:14:38.941Z,10.54
2023-10-21T17:17:12.257Z,11.12
2023-10-21T17:19:45.435Z,12.38
2023-10-21T17:22:18.586Z,13.21
2023-10-21T17:24:51.760Z,11.57
2023-10-21T17:27:26.466Z,13.44
2023-10-21T17:29:59.748Z,12.31
2023-10-21T17:32:33.244Z,11.52
2023-10-21T17:35:07.088Z,11.79
2023-10-21T17:37:40.242Z,12.98
2023-10-21T17:40:14.104Z,12.42
2023-10-21T17:42:48.706Z,11.90
2023-10-21T17:45:21.885Z,10.18
2023-10-21T17:47:56.384Z,11.38
2023-10-21T17:50:29.674Z,11.38
2023-10-21T17:53:02.862Z,9.76
2023-10-21T17:55:36.017Z,10.54
2023-10-21T17:58:10.682Z,10.70
2023-10-21T18:00:43.998Z,10.55
2023-10-21T18:03:17.373Z,11.14
2023-10-21T18:05:50.662Z,10.71
2023-10-21T18:08:24.656Z,12.39
2023-10-21T18:10:57.813Z,12.49
2023-10-21T18:13:32.314Z,13.61
2023-10-21T18:16:05.925Z,12.28
2023-10-21T18:18:39.195Z,12.08
2023-10-21T18:21:12.510Z,12.13
2023-10-21T18:23:46.124Z,12.43
2023-10-21T18:26:19.317Z,11.61
2023-10-21T18:28:55.354Z,11.20
2023-10-21T18:31:28.719Z,9.46
2023-10-21T18:34:04.819Z,9.93
2023-10-21T18:36:38.003Z,10.18
2023-10-21T18:39:11.957Z,11.05
2023-10-21T18:41:45.168Z,10.32
2023-10-21T18:44:19.760Z,11.23
2023-10-21T18:46:52.969Z,10.70
2023-10-21T18:49:26.239Z,8.77
2023-10-21T18:51:59.385Z,10.18
2023-10-21T18:54:33.176Z,9.79
2023-10-21T18:57:06.593Z,9.29
2023-10-21T18:59:41.653Z,11.27
2023-10-21T19:02:17.125Z,10.55
2023-10-21T19:04:50.640Z,9.57
2023-10-21T19:07:23.824Z,8.59
2023-10-21T19:10:00.436Z,9.83
2023-10-21T19:12:34.108Z,10.24
2023-10-21T19:15:09.477Z,10.01
2023-10-21T19:17:42.855Z,10.45
2023-10-21T19:20:16.516Z,8.37
2023-10-21T19:22:51.922Z,9.28
2023-10-21T19:25:25.152Z,8.99
2023-10-21T19:27:58.426Z,8.46
2023-10-21T19:30:33.101Z,10.08
2023-10-21T19:33:06.323Z,8.59
2023-10-21T19:35:39.515Z,9.56
2023-10-21T19:38:12.650Z,10.10
2023-10-21T19:40:45.788Z,9.97
2023-10-21T19:43:19.022Z,8.10
2023-10-21T19:45:53.536Z,8.76
2023-10-21T19:48:26.768Z,9.57
2023-10-21T19:50:59.939Z,8.45
2023-10-21T19:53:33.665Z,9.24
2023-10-21T19:56:07.312Z,8.92
2023-10-21T19:58:40.490Z,8.53
2023-10-21T20:01:15.224Z,8.15
2023-10-21T20:03:48.618Z,9.38
2023-10-21T20:06:21.957Z,9.39
2023-10-21T20:08:55.212Z,9.61
2023-10-21T20:11:28.441Z,10.96
2023-10-21T20:14:03.846Z,9.12
2023-10-21T20:16:38.438Z,10.10
2023-10-21T20:19:11.604Z,7.81
2023-10-21T20:21:44.888Z,9.59
2023-10-21T20:24:18.057Z,9.99
2023-10-21T20:26:51.681Z,8.99
2023-10-21T20:29:24.842Z,8.48
2023-10-21T20:31:59.354Z,10.41
2023-10-21T20:34:32.786Z,10.41
2023-10-21T20:37:06.919Z,10.01
2023-10-21T20:39:40.210Z,9.15
2023-10-21T20:42:13.436Z,9.13
2023-10-21T20:44:48.504Z,8.36
2023-10-21T20:47:23.117Z,11.68
2023-10-21T20:49:56.293Z,8.49
2023-10-21T20:52:29.455Z,9.87
2023-10-21T20:55:02.556Z,8.90
2023-10-21T20:57:35.746Z,10.78
2023-10-21T21:00:12.497Z,10.18
2023-10-21T21:02:49.486Z,9.67
2023-10-21T21:05:22.628Z,8.51
2023-10-21T21:07:56.037Z,8.34
2023-10-21T21:10:29.977Z,8.34
2023-10-21T21:13:03.224Z,11.55
2023-10-21T21:15:36.649Z,9.50
2023-10-21T21:18:11.232Z,8.24
2023-10-21T21:20:44.439Z,9.05
2023-10-21T21:23:17.665Z,9.37
2023-10-21T21:25:50.759Z,8.71
2023-10-21T21:28:24.213Z,10.51
2023-10-21T21:30:57.791Z,9.85
2023-10-21T21:33:32.323Z,8.04
2023-10-21T21:36:07.606Z,7.87
2023-10-21T21:38:40.855Z,8.70
2023-10-21T21:41:16.767Z,9.04
2023-10-21T21:43:49.958Z,10.39
2023-10-21T21:46:23.274Z,9.22
2023-10-21T21:48:57.853Z,9.30
2023-10-21T21:51:31.041Z,7.54
2023-10-21T21:54:04.307Z,7.84
2023-10-21T21:56:40.281Z,7.96
2023-10-21T21:59:13.606Z,7.95
2023-10-21T22:01:48.747Z,7.25
2023-10-21T22:04:23.571Z,8.77
2023-10-21T22:06:59.120Z,8.78
2023-10-21T22:09:34.159Z,7.54
2023-10-21T22:12:08.073Z,7.02
2023-10-21T22:14:41.313Z,7.31
2023-10-21T22:17:15.375Z,7.49
2023-10-21T22:19:49.966Z,6.98
2023-10-21T22:22:26.522Z,7.67
2023-10-21T22:24:59.695Z,5.69
2023-10-21T22:27:32.883Z,5.76
2023-10-21T22:30:07.735Z,7.68
2023-10-21T22:32:41.032Z,7.08
2023-10-21T22:35:16.296Z,6.12
2023-10-21T22:37:49.490Z,6.81
2023-10-21T22:40:23.280Z,6.27
2023-10-21T22:42:56.797Z,6.60
2023-10-21T22:45:31.526Z,7.29
2023-10-21T22:48:06.247Z,8.27
2023-10-21T22:50:40.951Z,7.03
2023-10-21T22:53:14.263Z,7.53
2023-10-21T22:55:48.093Z,5.74
2023-10-21T22:58:21.264Z,7.53
2023-10-21T23:00:54.532Z,7.98
2023-10-21T23:03:27.744Z,7.30
2023-10-21T23:06:04.082Z,6.87
2023-10-21T23:08:39.966Z,10.18
2023-10-21T23:11:13.416Z,7.91
2023-10-21T23:13:49.596Z,9.49
2023-10-21T23:16:22.937Z,10.44
2023-10-21T23:18:56.277Z,10.24
2023-10-21T23:21:30.857Z,9.67
2023-10-21T23:24:04.147Z,6.71
2023-10-21T23:26:37.436Z,8.25
2023-10-21T23:29:13.935Z,7.32
2023-10-21T23:31:47.108Z,6.40
2023-10-21T23:34:20.329Z,8.29
2023-10-21T23:36:55.143Z,6.33
2023-10-21T23:39:28.410Z,6.47
2023-10-21T23:42:01.601Z,7.38
2023-10-21T23:44:35.024Z,6.73
2023-10-21T23:47:08.555Z,6.75
2023-10-21T23:49:42.119Z,6.14
2023-10-21T23:52:17.431Z,6.62
2023-10-21T23:54:51.057Z,6.54
2023-10-21T23:57:24.427Z,6.89
2023-10-21T23:59:57.678Z,8.14
